Time;durP1;ratioP1;P1;durP2;ratioP2;P2;SDS_P1;SDS_P2;PMS_P1;PMS_P2;Temp;Humidity;BMP_temperature;BMP_pressure;BME280_temperature;BME280_humidity;BME280_pressure;Samples;Min_cycle;Max_cycle;Signal;HPM_P1;HPM_P2
2023/04/13 00:03:17;;;;;;;;;;;7.10;99.90;;;;;;8392785;28;20307;-75
2023/04/13 00:07:21;;;;;;;;;;;7.10;99.90;;;;;;8404315;28;20395;-74
2023/04/13 00:11:23;;;;;;;;;;;7.10;99.90;;;;;;8410104;28;19930;-75
2023/04/13 00:15:25;;;;;;;;;;;7.10;99.90;;;;;;8388025;28;19974;-74
2023/04/13 00:19:27;;;;;;;;;;;7.00;99.90;;;;;;8390088;28;19975;-74
2023/04/13 00:23:29;;;;;;;;;;;7.00;99.90;;;;;;8372854;28;19928;-74
2023/04/13 00:27:30;;;;;;;;;;;7.00;99.90;;;;;;8408545;28;19977;-75
2023/04/13 00:31:32;;;;;;;;;;;7.00;99.90;;;;;;8408640;28;20364;-74
2023/04/13 00:35:34;;;;;;;;;;;7.00;99.90;;;;;;8379639;28;19925;-75
2023/04/13 00:39:36;;;;;;;;;;;6.90;99.90;;;;;;8367039;28;19950;-75
2023/04/13 00:43:38;;;;;;;;;;;7.00;99.90;;;;;;8372686;28;19925;-75
2023/04/13 00:47:40;;;;;;;;;;;6.90;99.90;;;;;;8386214;28;19939;-75
2023/04/13 00:51:43;;;;;;;;;;;6.90;99.90;;;;;;8397712;28;19925;-75
2023/04/13 00:55:47;;;;;;;;;;;6.80;99.90;;;;;;8377163;28;20396;-76
2023/04/13 00:59:49;;;;;;;;;;;6.80;99.90;;;;;;8368358;28;20071;-75
2023/04/13 01:03:52;;;;;;;;;;;6.80;99.90;;;;;;8399198;28;20039;-75
2023/04/13 01:07:54;;;;;;;;;;;6.80;99.90;;;;;;8393941;28;20415;-76
2023/04/13 01:12:10;;;;;;;;;;;6.80;99.90;;;;;;8408990;28;20300;-75
2023/04/13 01:16:19;;;;;;;;;;;6.80;99.90;;;;;;8400517;28;19979;-75
2023/04/13 01:20:21;;;;;;;;;;;6.80;99.90;;;;;;8407890;28;22476;-76
2023/04/13 01:24:35;;;;;;;;;;;6.80;99.90;;;;;;8393700;28;20391;-75
2023/04/13 01:28:37;;;;;;;;;;;6.80;99.90;;;;;;8396593;28;19924;-75
2023/04/13 01:32:40;;;;;;;;;;;6.80;99.90;;;;;;8417833;28;19964;-74
2023/04/13 01:36:42;;;;;;;;;;;6.80;99.90;;;;;;8402502;28;19924;-75
2023/04/13 01:40:44;;;;;;;;;;;6.80;99.90;;;;;;8373056;28;19951;-75
2023/04/13 01:44:46;;;;;;;;;;;6.90;99.90;;;;;;8409159;28;19924;-76
2023/04/13 01:48:50;;;;;;;;;;;6.90;99.90;;;;;;8400072;28;20012;-76
2023/04/13 01:52:54;;;;;;;;;;;6.90;99.90;;;;;;8403231;28;20299;-76
2023/04/13 01:56:56;;;;;;;;;;;6.90;99.90;;;;;;8395536;28;19963;-75
2023/04/13 02:00:57;;;;;;;;;;;6.80;99.90;;;;;;8398535;28;19924;-75
2023/04/13 02:04:59;;;;;;;;;;;6.90;99.90;;;;;;8406315;28;19968;-76
2023/04/13 02:09:03;;;;;;;;;;;6.80;99.90;;;;;;8395564;28;20477;-77
2023/04/13 02:13:04;;;;;;;;;;;6.80;99.90;;;;;;8385221;28;22084;-76
2023/04/13 02:17:07;;;;;;;;;;;6.80;99.90;;;;;;8394714;28;19928;-77
2023/04/13 02:21:10;;;;;;;;;;;6.80;99.90;;;;;;8414944;27;20011;-76
2023/04/13 02:25:11;;;;;;;;;;;6.80;99.90;;;;;;8392738;28;19979;-76
2023/04/13 02:29:13;;;;;;;;;;;6.80;99.90;;;;;;8386121;28;19924;-76
2023/04/13 02:33:15;;;;;;;;;;;6.80;99.90;;;;;;8405658;28;19924;-77
2023/04/13 02:37:17;;;;;;;;;;;6.80;99.90;;;;;;8392739;28;19974;-76
2023/04/13 02:41:21;;;;;;;;;;;6.80;99.90;;;;;;8403785;28;19924;-76
2023/04/13 02:45:23;;;;;;;;;;;6.80;99.90;;;;;;8403890;28;20589;-76
2023/04/13 02:49:25;;;;;;;;;;;6.80;99.90;;;;;;8402071;28;20014;-76
2023/04/13 02:53:27;;;;;;;;;;;6.70;99.90;;;;;;8401430;28;19924;-76
2023/04/13 02:57:28;;;;;;;;;;;6.70;99.90;;;;;;8397398;28;19924;-76
2023/04/13 03:01:30;;;;;;;;;;;6.60;99.90;;;;;;8400907;28;19935;-76
2023/04/13 03:05:32;;;;;;;;;;;6.50;99.90;;;;;;8404148;28;20384;-76
2023/04/13 03:09:35;;;;;;;;;;;6.50;99.90;;;;;;8381810;28;19980;-76
2023/04/13 03:13:36;;;;;;;;;;;6.40;99.90;;;;;;8392484;28;20026;-76
2023/04/13 03:17:40;;;;;;;;;;;6.40;99.90;;;;;;8396225;28;20577;-76
2023/04/13 03:21:43;;;;;;;;;;;6.30;99.90;;;;;;8383667;28;20019;-76
2023/04/13 03:25:45;;;;;;;;;;;6.30;99.90;;;;;;8411664;28;19972;-76
2023/04/13 03:29:46;;;;;;;;;;;6.30;99.90;;;;;;8406955;28;19931;-76
2023/04/13 03:33:49;;;;;;;;;;;6.30;99.90;;;;;;8398915;28;19925;-76
2023/04/13 03:37:51;;;;;;;;;;;6.30;99.90;;;;;;8406739;28;19924;-76
2023/04/13 03:41:53;;;;;;;;;;;6.20;99.90;;;;;;8406741;28;19924;-76
2023/04/13 03:45:55;;;;;;;;;;;6.20;99.90;;;;;;8406235;28;19928;-76
2023/04/13 03:49:57;;;;;;;;;;;6.20;99.90;;;;;;8396367;28;19928;-76
2023/04/13 03:53:58;;;;;;;;;;;6.20;99.90;;;;;;8408469;28;20282;-76
2023/04/13 03:58:00;;;;;;;;;;;6.30;99.90;;;;;;8400098;28;20397;-76
2023/04/13 04:02:02;;;;;;;;;;;6.30;99.90;;;;;;8407704;28;19979;-76
2023/04/13 04:06:04;;;;;;;;;;;6.30;99.90;;;;;;8408351;28;19932;-76
2023/04/13 04:10:06;;;;;;;;;;;6.30;99.90;;;;;;8391978;28;19932;-76
2023/04/13 04:14:08;;;;;;;;;;;6.30;99.90;;;;;;8392713;28;19974;-76
2023/04/13 04:18:10;;;;;;;;;;;6.30;99.90;;;;;;8380087;28;19931;-76
2023/04/13 04:22:12;;;;;;;;;;;6.20;99.90;;;;;;8372092;28;19971;-76
2023/04/13 04:26:14;;;;;;;;;;;6.20;99.90;;;;;;8396141;28;19970;-76
2023/04/13 04:30:17;;;;;;;;;;;6.20;99.90;;;;;;8401045;28;19932;-76
2023/04/13 04:34:19;;;;;;;;;;;6.20;99.90;;;;;;8397536;28;20686;-75
2023/04/13 04:38:22;;;;;;;;;;;6.10;99.90;;;;;;8401770;28;19924;-76
2023/04/13 04:42:24;;;;;;;;;;;6.20;99.90;;;;;;8388358;28;19932;-75
2023/04/13 04:46:28;;;;;;;;;;;6.20;99.90;;;;;;8392657;28;19963;-76
2023/04/13 04:50:30;;;;;;;;;;;6.20;99.90;;;;;;8396078;28;19932;-76
2023/04/13 04:54:31;;;;;;;;;;;6.30;99.90;;;;;;8396389;28;19939;-76
2023/04/13 04:58:33;;;;;;;;;;;6.30;99.90;;;;;;8389256;28;21829;-75
2023/04/13 05:02:35;;;;;;;;;;;6.40;99.90;;;;;;8391260;28;20512;-76
2023/04/13 05:06:39;;;;;;;;;;;6.40;99.90;;;;;;8397006;28;19951;-75
2023/04/13 05:10:42;;;;;;;;;;;6.50;99.90;;;;;;8389960;28;19978;-75
2023/04/13 05:14:47;;;;;;;;;;;6.60;99.90;;;;;;8397993;28;20011;-76
2023/04/13 05:18:48;;;;;;;;;;;6.60;99.90;;;;;;8392970;28;20334;-76
2023/04/13 05:22:50;;;;;;;;;;;6.70;99.90;;;;;;8403000;28;19924;-75
2023/04/13 05:26:53;;;;;;;;;;;6.80;99.90;;;;;;8388299;28;21500;-75
2023/04/13 05:31:01;;;;;;;;;;;6.80;99.90;;;;;;8433186;27;19932;-75
2023/04/13 05:35:03;;;;;;;;;;;6.80;99.90;;;;;;8399730;28;19924;-76
2023/04/13 05:39:05;;;;;;;;;;;6.90;99.90;;;;;;8415109;28;19929;-75
2023/04/13 05:43:06;;;;;;;;;;;6.90;99.90;;;;;;8405004;28;19932;-75
2023/04/13 05:47:08;;;;;;;;;;;6.80;99.90;;;;;;8399468;28;19931;-76
2023/04/13 05:51:14;;;;;;;;;;;6.80;99.90;;;;;;8405681;28;20070;-75
2023/04/13 05:55:18;;;;;;;;;;;6.70;99.90;;;;;;8400640;28;19928;-76
2023/04/13 05:59:20;;;;;;;;;;;6.80;99.90;;;;;;8406282;28;19947;-76
2023/04/13 06:03:22;;;;;;;;;;;6.70;99.90;;;;;;8402028;28;19938;-77
2023/04/13 06:07:24;;;;;;;;;;;6.70;99.90;;;;;;8388167;28;19979;-76
2023/04/13 06:11:26;;;;;;;;;;;6.70;99.90;;;;;;8393793;28;20387;-76
2023/04/13 06:15:28;;;;;;;;;;;6.60;99.90;;;;;;8394966;28;19935;-76
2023/04/13 06:19:29;;;;;;;;;;;6.70;99.90;;;;;;8389755;28;19986;-76
2023/04/13 06:23:31;;;;;;;;;;;6.60;99.90;;;;;;8393361;28;19925;-76
2023/04/13 06:27:33;;;;;;;;;;;6.80;99.90;;;;;;8393151;28;19924;-76
2023/04/13 06:31:35;;;;;;;;;;;6.80;99.90;;;;;;8405323;28;19958;-76
2023/04/13 06:35:37;;;;;;;;;;;6.70;99.90;;;;;;8400512;28;19978;-76
2023/04/13 06:39:39;;;;;;;;;;;6.70;99.90;;;;;;8402897;28;19971;-76
2023/04/13 06:43:40;;;;;;;;;;;6.70;99.90;;;;;;8405997;28;19924;-76
2023/04/13 06:47:42;;;;;;;;;;;6.80;99.90;;;;;;8403271;28;19956;-76
2023/04/13 06:51:44;;;;;;;;;;;6.80;99.90;;;;;;8396307;28;19968;-76
2023/04/13 06:55:45;;;;;;;;;;;6.90;99.90;;;;;;8395571;28;19932;-76
2023/04/13 06:59:47;;;;;;;;;;;6.90;99.90;;;;;;8399650;28;19924;-77
2023/04/13 07:03:49;;;;;;;;;;;7.00;99.90;;;;;;8417421;28;19924;-76
2023/04/13 07:07:50;;;;;;;;;;;7.00;99.90;;;;;;8397128;28;20372;-77
2023/04/13 07:11:52;;;;;;;;;;;7.00;99.90;;;;;;8405853;28;19931;-74
2023/04/13 07:15:54;;;;;;;;;;;7.00;99.90;;;;;;8399408;28;19932;-74
2023/04/13 07:19:55;;;;;;;;;;;6.90;99.90;;;;;;8397430;28;19933;-75
2023/04/13 07:24:03;;;;;;;;;;;6.80;99.90;;;;;;8394749;28;19964;-76
2023/04/13 07:28:05;;;;;;;;;;;6.90;99.90;;;;;;8392448;28;19931;-76
2023/04/13 07:32:07;;;;;;;;;;;7.10;99.90;;;;;;8392620;28;19971;-75
2023/04/13 07:36:08;;;;;;;;;;;7.40;99.90;;;;;;8379363;28;19967;-75
2023/04/13 07:40:10;;;;;;;;;;;7.40;99.90;;;;;;8399020;28;19968;-75
2023/04/13 07:44:13;;;;;;;;;;;7.40;99.90;;;;;;8383941;28;20396;-75
2023/04/13 07:48:15;;;;;;;;;;;7.40;99.90;;;;;;8384906;28;19928;-73
2023/04/13 07:52:17;;;;;;;;;;;7.30;99.90;;;;;;8402196;28;20101;-74
2023/04/13 07:56:20;;;;;;;;;;;7.30;99.90;;;;;;8392866;28;19924;-74
2023/04/13 08:00:22;;;;;;;;;;;7.40;99.90;;;;;;8423083;28;19925;-75
2023/04/13 08:04:24;;;;;;;;;;;7.60;99.90;;;;;;8404558;28;20257;-75
2023/04/13 08:08:26;;;;;;;;;;;7.70;99.90;;;;;;8398381;28;19925;-76
2023/04/13 08:12:28;;;;;;;;;;;7.80;99.90;;;;;;8396163;28;20387;-76
2023/04/13 08:16:33;;;;;;;;;;;8.10;99.90;;;;;;8389146;28;20510;-76
2023/04/13 08:20:35;;;;;;;;;;;8.30;99.90;;;;;;8403743;28;19939;-76
2023/04/13 08:24:37;;;;;;;;;;;8.50;99.90;;;;;;8406368;28;19975;-76
2023/04/13 08:28:39;;;;;;;;;;;8.60;99.90;;;;;;8402965;28;19982;-76
2023/04/13 08:32:40;;;;;;;;;;;8.80;99.90;;;;;;8410046;28;20295;-77
2023/04/13 08:36:44;;;;;;;;;;;8.90;99.90;;;;;;8404547;28;20360;-75
2023/04/13 08:40:46;;;;;;;;;;;8.90;99.90;;;;;;8397701;28;19970;-76
2023/04/13 08:44:51;;;;;;;;;;;8.90;99.90;;;;;;8406136;28;19998;-76
2023/04/13 08:48:53;;;;;;;;;;;9.00;99.90;;;;;;8400426;28;20323;-76
2023/04/13 08:52:55;;;;;;;;;;;9.10;99.90;;;;;;8393902;28;19924;-76
2023/04/13 08:56:57;;;;;;;;;;;9.00;99.90;;;;;;8389448;28;19947;-76
2023/04/13 09:00:59;;;;;;;;;;;8.90;99.90;;;;;;8428850;27;20007;-76
2023/04/13 09:05:04;;;;;;;;;;;8.80;99.90;;;;;;8396814;28;20027;-76
2023/04/13 09:09:10;;;;;;;;;;;9.00;99.90;;;;;;8396291;28;19928;-76
2023/04/13 09:13:12;;;;;;;;;;;9.30;99.90;;;;;;8417478;28;20010;-75
2023/04/13 09:17:24;;;;;;;;;;;9.60;99.90;;;;;;8396201;28;20391;-76
2023/04/13 09:21:36;;;;;;;;;;;10.00;99.90;;;;;;8394783;28;19925;-75
2023/04/13 09:25:38;;;;;;;;;;;10.00;99.90;;;;;;8406167;28;20371;-75
2023/04/13 09:29:47;;;;;;;;;;;9.90;99.90;;;;;;8399045;28;19924;-75
2023/04/13 09:33:51;;;;;;;;;;;9.70;99.90;;;;;;8391571;28;19973;-75
2023/04/13 09:37:54;;;;;;;;;;;9.50;99.90;;;;;;8404226;28;19979;-76
2023/04/13 09:41:57;;;;;;;;;;;9.30;99.90;;;;;;8414267;28;19971;-76
2023/04/13 09:45:59;;;;;;;;;;;9.10;99.90;;;;;;8403179;28;19931;-76
2023/04/13 09:50:01;;;;;;;;;;;9.20;99.90;;;;;;8402732;28;19925;-76
2023/04/13 09:54:04;;;;;;;;;;;9.20;99.90;;;;;;8391567;28;19959;-75
2023/04/13 09:58:08;;;;;;;;;;;9.20;99.90;;;;;;8396075;28;20330;-75
2023/04/13 10:02:11;;;;;;;;;;;9.20;99.90;;;;;;8413852;28;20039;-76
2023/04/13 10:06:13;;;;;;;;;;;9.40;99.90;;;;;;8407782;28;19924;-75
2023/04/13 10:10:15;;;;;;;;;;;9.50;99.90;;;;;;8392123;28;19986;-75
2023/04/13 10:14:19;;;;;;;;;;;9.70;99.90;;;;;;8402404;28;19981;-75
2023/04/13 10:18:41;;;;;;;;;;;9.90;99.90;;;;;;8410058;28;19931;-75
2023/04/13 10:22:43;;;;;;;;;;;10.50;99.90;;;;;;8409675;28;20025;-75
2023/04/13 10:26:45;;;;;;;;;;;10.90;99.90;;;;;;8403555;28;19936;-75
2023/04/13 10:30:48;;;;;;;;;;;10.90;99.90;;;;;;8395812;28;19929;-75
2023/04/13 10:34:50;;;;;;;;;;;10.70;99.90;;;;;;8403228;28;20643;-75
2023/04/13 10:38:53;;;;;;;;;;;10.50;99.90;;;;;;8391194;28;19933;-75
2023/04/13 10:42:54;;;;;;;;;;;10.50;99.90;;;;;;8393119;28;19932;-75
2023/04/13 10:46:57;;;;;;;;;;;10.50;99.90;;;;;;8395229;28;19967;-75
2023/04/13 10:51:00;;;;;;;;;;;10.40;99.90;;;;;;8401689;28;19924;-75
2023/04/13 10:55:02;;;;;;;;;;;10.40;99.90;;;;;;8393347;28;19932;-75
2023/04/13 10:59:03;;;;;;;;;;;10.50;99.90;;;;;;8393246;28;19968;-75
2023/04/13 11:03:07;;;;;;;;;;;10.80;99.90;;;;;;8379298;28;19935;-75
2023/04/13 11:07:13;;;;;;;;;;;10.90;99.90;;;;;;8389824;28;20388;-76
2023/04/13 11:11:23;;;;;;;;;;;10.90;99.90;;;;;;8404015;28;19932;-75
2023/04/13 11:15:28;;;;;;;;;;;10.90;99.90;;;;;;8402427;28;20008;-75
2023/04/13 11:19:30;;;;;;;;;;;11.00;99.90;;;;;;8404662;28;19934;-75
2023/04/13 11:23:33;;;;;;;;;;;11.00;99.90;;;;;;8410594;28;19924;-75
2023/04/13 11:27:36;;;;;;;;;;;11.10;99.90;;;;;;8387815;28;20036;-75
2023/04/13 11:31:39;;;;;;;;;;;11.00;99.90;;;;;;8407837;28;19928;-75
2023/04/13 11:35:43;;;;;;;;;;;11.20;99.90;;;;;;8418928;28;19927;-75
2023/04/13 11:39:50;;;;;;;;;;;11.50;99.90;;;;;;8394931;28;19929;-75
2023/04/13 11:43:52;;;;;;;;;;;11.60;99.90;;;;;;8378971;28;19971;-75
2023/04/13 11:47:55;;;;;;;;;;;11.60;99.90;;;;;;8380528;28;19931;-75
2023/04/13 11:51:58;;;;;;;;;;;11.70;99.90;;;;;;8381546;28;19940;-75
2023/04/13 11:55:59;;;;;;;;;;;11.50;99.90;;;;;;8381915;28;19934;-75
2023/04/13 12:00:08;;;;;;;;;;;11.30;99.90;;;;;;8377535;28;19928;-74
2023/04/13 12:04:12;;;;;;;;;;;11.20;99.90;;;;;;8380732;28;19931;-75
2023/04/13 12:08:22;;;;;;;;;;;11.40;99.90;;;;;;8379247;28;20347;-75
2023/04/13 12:12:25;;;;;;;;;;;11.40;99.90;;;;;;8380515;28;20368;-75
2023/04/13 12:16:32;;;;;;;;;;;11.60;99.90;;;;;;8379174;28;19954;-75
2023/04/13 12:20:38;;;;;;;;;;;11.50;99.90;;;;;;8377662;28;20851;-75
2023/04/13 12:24:40;;;;;;;;;;;11.20;99.90;;;;;;8384693;28;19935;-75
2023/04/13 12:28:43;;;;;;;;;;;11.00;99.90;;;;;;8379401;28;19925;-75
2023/04/13 12:32:46;;;;;;;;;;;11.20;99.90;;;;;;8377568;28;19946;-75
2023/04/13 12:36:47;;;;;;;;;;;11.50;99.90;;;;;;8379955;28;19929;-75
2023/04/13 12:41:00;;;;;;;;;;;11.70;99.90;;;;;;8378654;28;19979;-75
2023/04/13 12:45:02;;;;;;;;;;;11.90;99.90;;;;;;8380148;28;19929;-75
2023/04/13 12:49:03;;;;;;;;;;;12.10;99.90;;;;;;8379709;28;19929;-75
2023/04/13 12:53:05;;;;;;;;;;;12.30;99.90;;;;;;8377474;28;19975;-75
2023/04/13 12:57:06;;;;;;;;;;;12.40;99.90;;;;;;8378158;28;19931;-75
2023/04/13 13:01:08;;;;;;;;;;;12.60;99.90;;;;;;8377804;28;19928;-75
2023/04/13 13:05:10;;;;;;;;;;;12.70;99.90;;;;;;8376750;28;19925;-75
2023/04/13 13:09:12;;;;;;;;;;;13.00;99.90;;;;;;8379563;28;19929;-75
2023/04/13 13:13:15;;;;;;;;;;;13.10;99.90;;;;;;8407946;27;19925;-75
2023/04/13 13:17:17;;;;;;;;;;;13.10;99.90;;;;;;8379828;28;19933;-75
2023/04/13 13:21:20;;;;;;;;;;;13.20;99.90;;;;;;8388091;28;19999;-75
2023/04/13 13:25:21;;;;;;;;;;;13.10;99.90;;;;;;8404320;27;19928;-75
2023/04/13 13:29:23;;;;;;;;;;;13.10;99.90;;;;;;8377161;28;19935;-75
2023/04/13 13:33:25;;;;;;;;;;;12.90;99.90;;;;;;8375011;28;20311;-75
2023/04/13 13:37:26;;;;;;;;;;;12.80;99.90;;;;;;8377793;28;19924;-75
2023/04/13 13:41:28;;;;;;;;;;;13.00;99.90;;;;;;8371693;28;19929;-75
2023/04/13 13:45:30;;;;;;;;;;;13.30;99.90;;;;;;8371375;28;19929;-75
2023/04/13 13:49:31;;;;;;;;;;;13.60;99.90;;;;;;8371845;28;20396;-75
2023/04/13 13:53:33;;;;;;;;;;;13.70;99.90;;;;;;8372312;28;19968;-75
2023/04/13 13:57:35;;;;;;;;;;;13.70;99.90;;;;;;8373464;28;20004;-75
2023/04/13 14:01:36;;;;;;;;;;;13.80;99.90;;;;;;8363557;28;20035;-75
2023/04/13 14:05:38;;;;;;;;;;;14.10;99.90;;;;;;8367454;28;20021;-76
2023/04/13 14:09:39;;;;;;;;;;;14.90;99.90;;;;;;8380486;28;20510;-75
2023/04/13 14:13:41;;;;;;;;;;;15.20;99.90;;;;;;8372794;28;19931;-75
2023/04/13 14:17:43;;;;;;;;;;;15.80;99.90;;;;;;8372625;28;19932;-75
2023/04/13 14:21:51;;;;;;;;;;;16.40;99.90;;;;;;8380695;28;19972;-73
2023/04/13 14:25:53;;;;;;;;;;;16.80;99.90;;;;;;8377894;28;20401;-73
2023/04/13 14:29:55;;;;;;;;;;;16.70;99.90;;;;;;8378136;28;19967;-75
2023/04/13 14:33:56;;;;;;;;;;;16.60;99.90;;;;;;8369321;28;19928;-74
2023/04/13 14:37:59;;;;;;;;;;;16.30;99.90;;;;;;8373846;28;19940;-76
2023/04/13 14:42:00;;;;;;;;;;;15.50;99.90;;;;;;8376040;28;20335;-75
2023/04/13 14:46:03;;;;;;;;;;;15.20;99.90;;;;;;8373802;28;19932;-75
2023/04/13 14:50:07;;;;;;;;;;;15.00;99.90;;;;;;8406024;28;19925;-75
2023/04/13 14:54:09;;;;;;;;;;;15.20;99.90;;;;;;8373632;28;19928;-75
2023/04/13 14:58:11;;;;;;;;;;;15.90;99.90;;;;;;8375628;28;19924;-75
2023/04/13 15:02:13;;;;;;;;;;;15.90;99.60;;;;;;8373341;28;19967;-75
2023/04/13 15:06:15;;;;;;;;;;;16.20;99.90;;;;;;8369908;28;19972;-75
2023/04/13 15:10:17;;;;;;;;;;;16.90;99.90;;;;;;8370134;28;20295;-75
2023/04/13 15:14:19;;;;;;;;;;;17.30;99.90;;;;;;8379255;28;19939;-75
2023/04/13 15:18:21;;;;;;;;;;;17.30;99.90;;;;;;8379238;28;20391;-75
2023/04/13 15:22:23;;;;;;;;;;;17.70;99.90;;;;;;8378707;28;19929;-75
2023/04/13 15:26:25;;;;;;;;;;;18.00;99.90;;;;;;8380002;28;20394;-75
2023/04/13 15:30:27;;;;;;;;;;;18.00;97.60;;;;;;8377492;28;20855;-75
2023/04/13 15:34:29;;;;;;;;;;;18.20;96.30;;;;;;8380470;28;19929;-75
2023/04/13 15:38:31;;;;;;;;;;;18.10;95.20;;;;;;8380612;28;19968;-75
2023/04/13 15:42:33;;;;;;;;;;;17.90;93.80;;;;;;8382023;28;20345;-75
2023/04/13 15:46:35;;;;;;;;;;;17.50;92.10;;;;;;8382850;28;19929;-75
2023/04/13 15:50:37;;;;;;;;;;;17.40;93.00;;;;;;8378257;28;19970;-75
2023/04/13 15:54:39;;;;;;;;;;;17.40;90.90;;;;;;8377242;28;20295;-74
2023/04/13 15:58:41;;;;;;;;;;;17.40;95.10;;;;;;8380555;28;20355;-73
2023/04/13 16:02:43;;;;;;;;;;;17.50;90.40;;;;;;8375984;28;20395;-73
2023/04/13 16:06:45;;;;;;;;;;;17.80;89.20;;;;;;8379780;28;19939;-73
2023/04/13 16:10:46;;;;;;;;;;;18.10;89.50;;;;;;8377141;28;19931;-74
2023/04/13 16:14:48;;;;;;;;;;;18.40;92.90;;;;;;8378883;28;19924;-73
2023/04/13 16:18:50;;;;;;;;;;;18.80;97.00;;;;;;8377226;28;19972;-73
2023/04/13 16:22:53;;;;;;;;;;;19.20;91.10;;;;;;8376620;28;19932;-73
2023/04/13 16:26:56;;;;;;;;;;;19.50;81.10;;;;;;8393597;28;19928;-73
2023/04/13 16:30:57;;;;;;;;;;;19.60;83.20;;;;;;8380980;28;19978;-72
2023/04/13 16:34:59;;;;;;;;;;;19.50;84.30;;;;;;8408596;27;20430;-73
2023/04/13 16:39:06;;;;;;;;;;;19.50;83.00;;;;;;8377289;28;19933;-73
2023/04/13 16:43:08;;;;;;;;;;;19.20;73.40;;;;;;8375586;28;19955;-73
2023/04/13 16:47:10;;;;;;;;;;;19.30;78.70;;;;;;8382164;28;19929;-73
2023/04/13 16:51:12;;;;;;;;;;;19.50;77.70;;;;;;8393089;28;19977;-73
2023/04/13 16:55:13;;;;;;;;;;;19.80;88.20;;;;;;8381663;28;20386;-73
2023/04/13 16:59:15;;;;;;;;;;;20.10;84.90;;;;;;8373691;28;19943;-73
2023/04/13 17:03:17;;;;;;;;;;;20.50;82.00;;;;;;8377137;28;19928;-74
2023/04/13 17:07:22;;;;;;;;;;;20.60;88.00;;;;;;8378559;28;19933;-73
2023/04/13 17:11:24;;;;;;;;;;;20.70;85.80;;;;;;8382530;28;20344;-73
2023/04/13 17:15:25;;;;;;;;;;;20.70;84.80;;;;;;8372619;28;20015;-73
2023/04/13 17:19:27;;;;;;;;;;;20.70;81.10;;;;;;8379289;28;19928;-73
2023/04/13 17:23:29;;;;;;;;;;;20.50;76.70;;;;;;8374965;28;20023;-73
2023/04/13 17:27:30;;;;;;;;;;;20.40;77.90;;;;;;8383402;28;20283;-73
2023/04/13 17:31:32;;;;;;;;;;;20.40;77.40;;;;;;8368828;28;19964;-73
2023/04/13 17:35:34;;;;;;;;;;;20.30;82.60;;;;;;8369636;28;19928;-73
2023/04/13 17:39:35;;;;;;;;;;;20.40;84.50;;;;;;8405820;27;20065;-73
2023/04/13 17:43:37;;;;;;;;;;;20.40;83.00;;;;;;8375991;28;20019;-74
2023/04/13 17:47:39;;;;;;;;;;;20.40;87.80;;;;;;8363452;28;20019;-72
2023/04/13 17:51:42;;;;;;;;;;;20.40;87.50;;;;;;8358353;28;19932;-72
2023/04/13 17:55:44;;;;;;;;;;;20.10;88.80;;;;;;8374411;28;19931;-73
2023/04/13 17:59:46;;;;;;;;;;;19.50;80.90;;;;;;8408023;27;19929;-73
2023/04/13 18:03:47;;;;;;;;;;;18.70;84.10;;;;;;8378089;28;23373;-72
2023/04/13 18:07:50;;;;;;;;;;;17.90;81.00;;;;;;8374867;28;19947;-73
2023/04/13 18:11:51;;;;;;;;;;;17.10;84.40;;;;;;8374738;28;20400;-72
2023/04/13 18:15:53;;;;;;;;;;;16.50;86.40;;;;;;8375778;28;20019;-73
2023/04/13 18:19:55;;;;;;;;;;;16.00;86.40;;;;;;8372651;28;19932;-73
2023/04/13 18:23:59;;;;;;;;;;;15.60;86.50;;;;;;8389006;28;19932;-72
2023/04/13 18:28:01;;;;;;;;;;;15.20;87.10;;;;;;8378621;28;19956;-74
2023/04/13 18:32:04;;;;;;;;;;;14.90;87.80;;;;;;8369522;28;19928;-75
2023/04/13 18:36:05;;;;;;;;;;;14.60;90.10;;;;;;8370293;28;20012;-74
2023/04/13 18:40:08;;;;;;;;;;;14.40;90.60;;;;;;8370432;28;19951;-74
2023/04/13 18:44:09;;;;;;;;;;;14.00;90.90;;;;;;8358845;28;20362;-74
2023/04/13 18:48:11;;;;;;;;;;;13.60;91.50;;;;;;8378782;28;19935;-74
2023/04/13 18:52:13;;;;;;;;;;;13.40;92.10;;;;;;8370635;28;19935;-74
2023/04/13 18:56:14;;;;;;;;;;;13.10;92.70;;;;;;8376683;28;19986;-74
2023/04/13 19:00:16;;;;;;;;;;;12.90;92.90;;;;;;8374148;28;20008;-75
2023/04/13 19:04:18;;;;;;;;;;;12.80;92.50;;;;;;8372597;28;19931;-74
2023/04/13 19:08:19;;;;;;;;;;;12.60;92.50;;;;;;8370157;28;19934;-75
2023/04/13 19:12:21;;;;;;;;;;;12.40;92.10;;;;;;8366220;28;20760;-75
2023/04/13 19:16:23;;;;;;;;;;;12.30;92.60;;;;;;8372427;28;19929;-75
2023/04/13 19:20:24;;;;;;;;;;;12.30;92.70;;;;;;8378109;28;20470;-75
2023/04/13 19:24:26;;;;;;;;;;;12.30;92.90;;;;;;8369807;28;19928;-75
2023/04/13 19:28:27;;;;;;;;;;;12.30;92.80;;;;;;8373197;28;20013;-74
2023/04/13 19:42:36;;;;;;;;;;;12.00;93.30;;;;;;8374376;28;20945;-75
2023/04/13 19:46:38;;;;;;;;;;;12.00;93.60;;;;;;8375308;28;20420;-74
2023/04/13 19:50:40;;;;;;;;;;;12.00;94.10;;;;;;8368081;28;20007;-75
2023/04/13 19:54:42;;;;;;;;;;;11.80;94.40;;;;;;8385102;28;19924;-74
2023/04/13 19:58:44;;;;;;;;;;;11.60;94.30;;;;;;8379848;28;20286;-74
2023/04/13 20:02:48;;;;;;;;;;;11.40;94.60;;;;;;8405173;28;19924;-74
2023/04/13 20:06:50;;;;;;;;;;;11.40;94.30;;;;;;8382103;28;19936;-74
2023/04/13 20:10:52;;;;;;;;;;;11.50;94.30;;;;;;8374399;28;19928;-74
2023/04/13 20:14:54;;;;;;;;;;;11.40;94.20;;;;;;8377985;28;19963;-75
2023/04/13 20:18:55;;;;;;;;;;;11.40;94.20;;;;;;8376179;28;19975;-75
2023/04/13 20:22:57;;;;;;;;;;;11.40;94.00;;;;;;8374231;28;19928;-74
2023/04/13 20:26:59;;;;;;;;;;;11.40;94.70;;;;;;8375653;28;19924;-74
2023/04/13 20:31:00;;;;;;;;;;;11.20;94.90;;;;;;8373619;28;19991;-75
2023/04/13 20:35:02;;;;;;;;;;;11.20;94.60;;;;;;8377092;28;19935;-74
2023/04/13 20:39:04;;;;;;;;;;;11.10;94.90;;;;;;8382409;28;19936;-74
2023/04/13 20:43:07;;;;;;;;;;;11.00;94.70;;;;;;8382261;28;20718;-74
2023/04/13 20:47:12;;;;;;;;;;;10.90;94.50;;;;;;8380594;28;19935;-75
2023/04/13 20:51:14;;;;;;;;;;;10.70;94.70;;;;;;8379009;28;19924;-74
2023/04/13 20:55:20;;;;;;;;;;;10.50;94.70;;;;;;8407071;28;19924;-74
2023/04/13 20:59:22;;;;;;;;;;;10.40;95.20;;;;;;8374774;28;19933;-74
2023/04/13 21:03:30;;;;;;;;;;;10.20;95.50;;;;;;8392209;28;19937;-74
2023/04/13 21:07:32;;;;;;;;;;;10.00;95.40;;;;;;8394916;28;19931;-74
2023/04/13 21:11:34;;;;;;;;;;;9.90;96.30;;;;;;8404389;28;19939;-74
2023/04/13 21:15:35;;;;;;;;;;;9.70;96.70;;;;;;8392244;28;20062;-74
2023/04/13 21:19:37;;;;;;;;;;;9.70;96.90;;;;;;8405097;28;19932;-74
2023/04/13 21:23:39;;;;;;;;;;;9.60;96.90;;;;;;8398777;28;19923;-75
2023/04/13 21:27:40;;;;;;;;;;;9.40;97.00;;;;;;8406436;28;20011;-74
2023/04/13 21:31:42;;;;;;;;;;;9.30;97.30;;;;;;8402361;28;20027;-74
2023/04/13 21:35:44;;;;;;;;;;;9.10;97.70;;;;;;8400044;28;19924;-74
2023/04/13 21:39:45;;;;;;;;;;;8.90;97.50;;;;;;8398284;28;19930;-74
2023/04/13 21:43:47;;;;;;;;;;;8.80;97.90;;;;;;8391826;28;19971;-74
2023/04/13 21:47:49;;;;;;;;;;;8.70;97.40;;;;;;8395892;28;19924;-74
2023/04/13 21:51:51;;;;;;;;;;;8.60;97.90;;;;;;8402709;28;19928;-74
2023/04/13 21:55:52;;;;;;;;;;;8.60;97.90;;;;;;8389058;28;19977;-74
2023/04/13 21:59:55;;;;;;;;;;;8.50;98.00;;;;;;8411363;28;19925;-74
2023/04/13 22:03:56;;;;;;;;;;;8.40;98.20;;;;;;8390846;28;19931;-74
2023/04/13 22:07:58;;;;;;;;;;;8.40;98.10;;;;;;8409519;28;19966;-74
2023/04/13 22:27:37;;;;;;;;;;;7.90;99.10;;;;;;8401509;28;19956;-74
2023/04/13 22:31:38;;;;;;;;;;;7.90;99.30;;;;;;8399288;28;19925;-74
2023/04/13 22:50:52;;;;;;;;;;;7.60;99.50;;;;;;8398710;28;19953;-74
2023/04/13 22:54:53;;;;;;;;;;;7.50;99.90;;;;;;8391304;28;20374;-74
2023/04/13 22:58:55;;;;;;;;;;;7.40;99.90;;;;;;8396398;28;19935;-74
2023/04/13 23:02:56;;;;;;;;;;;7.30;99.80;;;;;;8393437;28;19935;-74
2023/04/13 23:06:58;;;;;;;;;;;7.30;99.60;;;;;;8400985;28;20402;-74
2023/04/13 23:11:09;;;;;;;;;;;7.20;99.90;;;;;;8406352;28;19959;-73
2023/04/13 23:15:11;;;;;;;;;;;7.10;99.60;;;;;;8394319;28;20919;-74
2023/04/13 23:19:13;;;;;;;;;;;7.10;99.90;;;;;;8400499;28;20291;-75
2023/04/13 23:23:15;;;;;;;;;;;7.10;99.90;;;;;;8394128;28;19975;-74
2023/04/13 23:27:17;;;;;;;;;;;7.10;99.90;;;;;;8403341;28;19940;-73
2023/04/13 23:31:18;;;;;;;;;;;7.00;99.90;;;;;;8407757;28;20292;-73
2023/04/13 23:35:20;;;;;;;;;;;7.00;99.90;;;;;;8409118;28;19974;-74
2023/04/13 23:39:22;;;;;;;;;;;6.80;99.90;;;;;;8406597;28;20307;-74
2023/04/13 23:43:24;;;;;;;;;;;6.80;99.90;;;;;;8407122;28;19931;-74
2023/04/13 23:47:26;;;;;;;;;;;6.60;99.90;;;;;;8409360;28;19925;-73
2023/04/13 23:51:28;;;;;;;;;;;6.60;99.90;;;;;;8405365;28;19930;-74
2023/04/13 23:55:30;;;;;;;;;;;6.50;99.60;;;;;;8406947;28;19928;-74
2023/04/13 23:59:31;;;;;;;;;;;6.40;99.40;;;;;;8403201;28;19928;-74
